Main page
METAR-TAF:

METAR-TAF

Airports :

Middle Wallop, England

AAC Middle Wallop

latitude: 51-09N, longitude: 001-34W, elevation: 91 m

Current weather observation

The report was made 57 minutes ago, at 07:50 UTC
Wind 5 kt from the West
Temperature 14°C
Humidity 82%
Pressure 1021 hPa
Visibility 10 km or more
Few clouds at a height of 1000 ft
Scattered clouds at a height of 1400 ft
Broken clouds at a height of 4400 ft

METAR: EGVP 230750Z 28005KT 9999 FEW010 SCT014 BKN044 14/11 Q1021 GRN NOSIG

Time: 09:47 (08:47 UTC)

Forecast

The report was made 1 hour and 17 minutes ago, at 07:30 UTC
Forecast valid from 23 at 09 UTC to 23 at 18 UTC
Wind 6 kt from the West
Visibility 10 km or more
Broken clouds at a height of 2000 ft
Temporary
from 23 at 09 UTC to 23 at 11 UTC
Broken clouds at a height of 1000 ft
Becoming
from 23 at 14 UTC to 23 at 16 UTC
Scattered clouds at a height of 2500 ft

TAF: EGVP 230730Z 2309/2318 27006KT 9999 BKN020 TEMPO 2309/2311 BKN010 BECMG 2314/2316 SCT025

Weather observations and forecasts of more than 4000 airports (METAR and TAF reports).

The available stations are represented by yellow and red dots on the map.

Hover mouse over dot to see the name of the station.

Then click to see weather observations and forecasts.

To change the map : click on the green buttons with a black cross to zoom in, on the green button with a dash to zoom out, or on the green arrows for adjacent maps.


METAR-TAF: